sensor_id;sensor_type;location;lat;lon;timestamp;pressure;altitude;pressure_sealevel;temperature;humidity
63405;BME280;49541;57.840;12.306;2024-01-30T00:00:42;101735.66;;;7.66;100.00
63405;BME280;49541;57.840;12.306;2024-01-30T00:05:44;101727.88;;;7.47;100.00
63405;BME280;49541;57.840;12.306;2024-01-30T00:10:44;101731.22;;;7.51;100.00
63405;BME280;49541;57.840;12.306;2024-01-30T00:15:44;101730.41;;;7.33;100.00
63405;BME280;49541;57.840;12.306;2024-01-30T00:20:46;101724.97;;;7.36;100.00
63405;BME280;49541;57.840;12.306;2024-01-30T00:25:47;101723.50;;;7.62;100.00
63405;BME280;49541;57.840;12.306;2024-01-30T00:30:48;101720.16;;;7.74;100.00
63405;BME280;49541;57.840;12.306;2024-01-30T00:35:48;101726.91;;;7.48;100.00
63405;BME280;49541;57.840;12.306;2024-01-30T00:40:48;101714.88;;;7.43;100.00
63405;BME280;49541;57.840;12.306;2024-01-30T00:45:49;101713.94;;;7.28;100.00
63405;BME280;49541;57.840;12.306;2024-01-30T00:50:50;101711.88;;;7.17;100.00
63405;BME280;49541;57.840;12.306;2024-01-30T00:55:51;101705.91;;;7.29;100.00
63405;BME280;49541;57.840;12.306;2024-01-30T01:00:51;101716.31;;;7.16;100.00
63405;BME280;49541;57.840;12.306;2024-01-30T01:05:53;101713.50;;;7.20;100.00
63405;BME280;49541;57.840;12.306;2024-01-30T01:10:53;101708.00;;;6.91;100.00
63405;BME280;49541;57.840;12.306;2024-01-30T01:15:53;101706.72;;;7.14;100.00
63405;BME280;49541;57.840;12.306;2024-01-30T01:20:55;101695.53;;;7.09;100.00
63405;BME280;49541;57.840;12.306;2024-01-30T01:25:56;101708.44;;;7.15;100.00
63405;BME280;49541;57.840;12.306;2024-01-30T01:30:56;101695.81;;;7.36;100.00
63405;BME280;49541;57.840;12.306;2024-01-30T01:35:59;101713.31;;;7.54;100.00
63405;BME280;49541;57.840;12.306;2024-01-30T01:41:02;101706.91;;;7.11;100.00
63405;BME280;49541;57.840;12.306;2024-01-30T01:46:02;101708.72;;;7.26;100.00
63405;BME280;49541;57.840;12.306;2024-01-30T01:51:02;101703.09;;;6.83;100.00
63405;BME280;49541;57.840;12.306;2024-01-30T01:56:03;101704.59;;;7.05;100.00
63405;BME280;49541;57.840;12.306;2024-01-30T02:01:03;101692.66;;;7.29;100.00
63405;BME280;49541;57.840;12.306;2024-01-30T02:06:04;101692.22;;;7.37;100.00
63405;BME280;49541;57.840;12.306;2024-01-30T02:11:04;101692.38;;;7.02;100.00
63405;BME280;49541;57.840;12.306;2024-01-30T02:16:05;101682.75;;;7.17;100.00
63405;BME280;49541;57.840;12.306;2024-01-30T02:21:06;101687.53;;;7.26;100.00
63405;BME280;49541;57.840;12.306;2024-01-30T02:26:06;101672.38;;;7.28;100.00
63405;BME280;49541;57.840;12.306;2024-01-30T02:31:07;101668.44;;;7.35;100.00
63405;BME280;49541;57.840;12.306;2024-01-30T02:36:07;101679.25;;;7.16;100.00
63405;BME280;49541;57.840;12.306;2024-01-30T02:41:08;101691.41;;;6.87;100.00
63405;BME280;49541;57.840;12.306;2024-01-30T02:46:08;101682.69;;;7.01;100.00
63405;BME280;49541;57.840;12.306;2024-01-30T02:51:08;101670.47;;;6.67;100.00
63405;BME280;49541;57.840;12.306;2024-01-30T02:56:08;101665.88;;;6.86;100.00
63405;BME280;49541;57.840;12.306;2024-01-30T03:01:10;101665.78;;;6.88;100.00
63405;BME280;49541;57.840;12.306;2024-01-30T03:06:10;101661.97;;;6.93;100.00
63405;BME280;49541;57.840;12.306;2024-01-30T03:11:10;101649.47;;;6.95;100.00
63405;BME280;49541;57.840;12.306;2024-01-30T03:16:10;101642.72;;;6.90;100.00
63405;BME280;49541;57.840;12.306;2024-01-30T03:21:10;101625.53;;;6.81;100.00
63405;BME280;49541;57.840;12.306;2024-01-30T03:26:11;101642.66;;;7.07;100.00
63405;BME280;49541;57.840;12.306;2024-01-30T03:31:13;101652.41;;;6.91;100.00
63405;BME280;49541;57.840;12.306;2024-01-30T03:36:15;101641.75;;;6.75;100.00
63405;BME280;49541;57.840;12.306;2024-01-30T03:41:15;101639.47;;;7.01;100.00
63405;BME280;49541;57.840;12.306;2024-01-30T03:46:15;101634.88;;;7.04;100.00
63405;BME280;49541;57.840;12.306;2024-01-30T03:51:15;101641.44;;;6.81;100.00
63405;BME280;49541;57.840;12.306;2024-01-30T03:56:16;101634.59;;;6.77;100.00
63405;BME280;49541;57.840;12.306;2024-01-30T04:01:16;101631.88;;;6.94;100.00
63405;BME280;49541;57.840;12.306;2024-01-30T04:06:17;101634.56;;;7.10;100.00
63405;BME280;49541;57.840;12.306;2024-01-30T04:11:21;101620.09;;;7.00;100.00
63405;BME280;49541;57.840;12.306;2024-01-30T04:16:22;101632.56;;;7.30;100.00
63405;BME280;49541;57.840;12.306;2024-01-30T04:21:22;101627.00;;;7.03;100.00
63405;BME280;49541;57.840;12.306;2024-01-30T04:26:23;101634.69;;;7.07;100.00
63405;BME280;49541;57.840;12.306;2024-01-30T04:31:23;101640.44;;;7.00;100.00
63405;BME280;49541;57.840;12.306;2024-01-30T04:36:23;101632.41;;;7.17;100.00
63405;BME280;49541;57.840;12.306;2024-01-30T04:41:24;101631.22;;;7.07;100.00
63405;BME280;49541;57.840;12.306;2024-01-30T04:46:26;101637.25;;;6.77;100.00
63405;BME280;49541;57.840;12.306;2024-01-30T04:51:26;101648.78;;;6.92;100.00
63405;BME280;49541;57.840;12.306;2024-01-30T04:56:26;101654.75;;;6.80;100.00
63405;BME280;49541;57.840;12.306;2024-01-30T05:01:26;101654.41;;;6.70;100.00
63405;BME280;49541;57.840;12.306;2024-01-30T05:06:27;101646.19;;;6.74;100.00
63405;BME280;49541;57.840;12.306;2024-01-30T05:11:27;101622.81;;;6.83;100.00
63405;BME280;49541;57.840;12.306;2024-01-30T05:16:27;101617.47;;;6.84;100.00
63405;BME280;49541;57.840;12.306;2024-01-30T05:21:27;101615.59;;;6.86;100.00
63405;BME280;49541;57.840;12.306;2024-01-30T05:26:28;101605.41;;;6.94;100.00
63405;BME280;49541;57.840;12.306;2024-01-30T05:31:28;101599.09;;;7.13;100.00
63405;BME280;49541;57.840;12.306;2024-01-30T05:36:28;101604.13;;;7.02;100.00
63405;BME280;49541;57.840;12.306;2024-01-30T05:41:29;101616.13;;;6.60;100.00
63405;BME280;49541;57.840;12.306;2024-01-30T05:46:29;101605.59;;;6.75;100.00
63405;BME280;49541;57.840;12.306;2024-01-30T05:51:29;101610.31;;;6.69;100.00
63405;BME280;49541;57.840;12.306;2024-01-30T05:56:31;101617.34;;;6.70;100.00
63405;BME280;49541;57.840;12.306;2024-01-30T06:01:31;101601.63;;;6.67;100.00
63405;BME280;49541;57.840;12.306;2024-01-30T06:06:31;101593.31;;;6.41;100.00
63405;BME280;49541;57.840;12.306;2024-01-30T06:11:31;101596.06;;;6.22;100.00
63405;BME280;49541;57.840;12.306;2024-01-30T06:16:32;101584.41;;;6.75;100.00
63405;BME280;49541;57.840;12.306;2024-01-30T06:21:33;101582.09;;;6.69;100.00
63405;BME280;49541;57.840;12.306;2024-01-30T06:26:36;101571.75;;;6.65;100.00
63405;BME280;49541;57.840;12.306;2024-01-30T06:31:40;101584.88;;;6.50;100.00
63405;BME280;49541;57.840;12.306;2024-01-30T06:36:41;101577.47;;;6.73;100.00
63405;BME280;49541;57.840;12.306;2024-01-30T06:41:41;101579.38;;;6.38;100.00
63405;BME280;49541;57.840;12.306;2024-01-30T06:46:42;101568.56;;;6.58;100.00
63405;BME280;49541;57.840;12.306;2024-01-30T06:51:42;101567.22;;;6.98;100.00
63405;BME280;49541;57.840;12.306;2024-01-30T06:56:42;101559.88;;;7.04;100.00
63405;BME280;49541;57.840;12.306;2024-01-30T07:01:42;101548.69;;;6.83;100.00
63405;BME280;49541;57.840;12.306;2024-01-30T07:06:43;101563.03;;;6.79;100.00
63405;BME280;49541;57.840;12.306;2024-01-30T07:11:43;101572.78;;;6.78;100.00
63405;BME280;49541;57.840;12.306;2024-01-30T07:16:43;101572.63;;;6.97;100.00
63405;BME280;49541;57.840;12.306;2024-01-30T07:21:44;101563.13;;;7.09;100.00
63405;BME280;49541;57.840;12.306;2024-01-30T07:26:44;101544.22;;;6.51;100.00
63405;BME280;49541;57.840;12.306;2024-01-30T07:31:44;101553.78;;;6.05;100.00
63405;BME280;49541;57.840;12.306;2024-01-30T07:36:44;101547.13;;;6.31;100.00
63405;BME280;49541;57.840;12.306;2024-01-30T07:41:46;101544.03;;;6.23;100.00
63405;BME280;49541;57.840;12.306;2024-01-30T07:46:46;101541.66;;;6.34;100.00
63405;BME280;49541;57.840;12.306;2024-01-30T07:51:46;101538.09;;;6.35;100.00
63405;BME280;49541;57.840;12.306;2024-01-30T07:56:46;101547.06;;;6.15;100.00
63405;BME280;49541;57.840;12.306;2024-01-30T08:01:47;101542.09;;;6.58;100.00
63405;BME280;49541;57.840;12.306;2024-01-30T08:06:47;101542.72;;;6.79;100.00
63405;BME280;49541;57.840;12.306;2024-01-30T08:11:47;101532.16;;;6.30;100.00
63405;BME280;49541;57.840;12.306;2024-01-30T08:16:48;101536.28;;;6.20;100.00
63405;BME280;49541;57.840;12.306;2024-01-30T08:21:48;101528.66;;;6.13;100.00
63405;BME280;49541;57.840;12.306;2024-01-30T08:26:48;101511.78;;;6.32;100.00
63405;BME280;49541;57.840;12.306;2024-01-30T08:31:48;101450.56;;;5.73;100.00
63405;BME280;49541;57.840;12.306;2024-01-30T08:36:49;101483.59;;;6.15;100.00
63405;BME280;49541;57.840;12.306;2024-01-30T08:41:49;101488.03;;;6.14;100.00
63405;BME280;49541;57.840;12.306;2024-01-30T08:46:49;101496.13;;;6.61;100.00
63405;BME280;49541;57.840;12.306;2024-01-30T08:51:50;101491.59;;;6.63;100.00
63405;BME280;49541;57.840;12.306;2024-01-30T08:56:50;101469.47;;;6.32;100.00
63405;BME280;49541;57.840;12.306;2024-01-30T09:01:53;101473.53;;;5.88;100.00
63405;BME280;49541;57.840;12.306;2024-01-30T09:06:55;101459.84;;;5.98;100.00
63405;BME280;49541;57.840;12.306;2024-01-30T09:11:55;101450.69;;;6.52;100.00
63405;BME280;49541;57.840;12.306;2024-01-30T09:16:55;101440.97;;;6.37;100.00
63405;BME280;49541;57.840;12.306;2024-01-30T09:21:55;101456.00;;;7.29;100.00
63405;BME280;49541;57.840;12.306;2024-01-30T09:26:56;101454.25;;;7.13;100.00
63405;BME280;49541;57.840;12.306;2024-01-30T09:31:56;101439.69;;;6.90;100.00
63405;BME280;49541;57.840;12.306;2024-01-30T09:36:56;101451.13;;;7.07;100.00
63405;BME280;49541;57.840;12.306;2024-01-30T09:42:17;101448.59;;;6.89;100.00
63405;BME280;49541;57.840;12.306;2024-01-30T09:47:20;101438.47;;;7.42;100.00
63405;BME280;49541;57.840;12.306;2024-01-30T09:52:21;101435.84;;;7.26;100.00
63405;BME280;49541;57.840;12.306;2024-01-30T09:57:21;101438.63;;;6.79;100.00
63405;BME280;49541;57.840;12.306;2024-01-30T10:02:26;101442.50;;;7.03;100.00
63405;BME280;49541;57.840;12.306;2024-01-30T10:07:26;101454.88;;;7.03;100.00
63405;BME280;49541;57.840;12.306;2024-01-30T10:12:27;101432.72;;;6.89;100.00
63405;BME280;49541;57.840;12.306;2024-01-30T10:17:27;101451.34;;;6.88;100.00
63405;BME280;49541;57.840;12.306;2024-01-30T10:22:27;101450.53;;;6.71;100.00
63405;BME280;49541;57.840;12.306;2024-01-30T10:27:27;101461.41;;;6.97;100.00
63405;BME280;49541;57.840;12.306;2024-01-30T10:32:29;101456.81;;;6.69;100.00
63405;BME280;49541;57.840;12.306;2024-01-30T10:37:29;101467.06;;;6.75;100.00
63405;BME280;49541;57.840;12.306;2024-01-30T10:42:32;101454.66;;;6.91;100.00
63405;BME280;49541;57.840;12.306;2024-01-30T10:47:32;101450.69;;;6.52;100.00
63405;BME280;49541;57.840;12.306;2024-01-30T10:52:34;101450.38;;;6.59;100.00
63405;BME280;49541;57.840;12.306;2024-01-30T10:57:34;101438.38;;;6.83;100.00
63405;BME280;49541;57.840;12.306;2024-01-30T11:02:38;101424.19;;;6.84;100.00
63405;BME280;49541;57.840;12.306;2024-01-30T11:07:39;101431.16;;;7.31;100.00
63405;BME280;49541;57.840;12.306;2024-01-30T11:12:43;101405.34;;;7.05;100.00
63405;BME280;49541;57.840;12.306;2024-01-30T11:17:51;101399.38;;;7.01;100.00
63405;BME280;49541;57.840;12.306;2024-01-30T11:22:52;101383.88;;;6.95;100.00
63405;BME280;49541;57.840;12.306;2024-01-30T11:27:55;101367.66;;;6.85;100.00
63405;BME280;49541;57.840;12.306;2024-01-30T11:33:02;101355.66;;;7.38;100.00
63405;BME280;49541;57.840;12.306;2024-01-30T11:38:06;101332.91;;;7.20;100.00
63405;BME280;49541;57.840;12.306;2024-01-30T11:43:07;101345.34;;;7.34;100.00
63405;BME280;49541;57.840;12.306;2024-01-30T11:48:08;101345.81;;;7.41;100.00
63405;BME280;49541;57.840;12.306;2024-01-30T11:53:10;101337.97;;;6.94;100.00
63405;BME280;49541;57.840;12.306;2024-01-30T11:58:10;101323.81;;;6.95;100.00
63405;BME280;49541;57.840;12.306;2024-01-30T12:03:10;101326.50;;;7.24;100.00
63405;BME280;49541;57.840;12.306;2024-01-30T12:08:15;101323.66;;;7.27;100.00
63405;BME280;49541;57.840;12.306;2024-01-30T12:13:15;101311.53;;;7.09;100.00
63405;BME280;49541;57.840;12.306;2024-01-30T12:18:18;101306.38;;;6.77;100.00
63405;BME280;49541;57.840;12.306;2024-01-30T12:23:18;101304.53;;;7.08;100.00
63405;BME280;49541;57.840;12.306;2024-01-30T12:28:20;101296.06;;;6.72;100.00
63405;BME280;49541;57.840;12.306;2024-01-30T12:33:21;101276.56;;;7.04;100.00
63405;BME280;49541;57.840;12.306;2024-01-30T12:38:21;101290.84;;;6.71;100.00
63405;BME280;49541;57.840;12.306;2024-01-30T12:43:21;101283.31;;;6.79;100.00
63405;BME280;49541;57.840;12.306;2024-01-30T12:48:22;101271.22;;;6.89;100.00
63405;BME280;49541;57.840;12.306;2024-01-30T12:53:22;101258.56;;;6.80;100.00
63405;BME280;49541;57.840;12.306;2024-01-30T12:58:22;101250.03;;;6.75;100.00
63405;BME280;49541;57.840;12.306;2024-01-30T13:03:23;101251.50;;;6.50;100.00
63405;BME280;49541;57.840;12.306;2024-01-30T13:08:23;101241.31;;;6.59;100.00
63405;BME280;49541;57.840;12.306;2024-01-30T13:13:24;101231.31;;;6.78;100.00
63405;BME280;49541;57.840;12.306;2024-01-30T13:18:24;101218.63;;;6.69;100.00
63405;BME280;49541;57.840;12.306;2024-01-30T13:23:24;101216.84;;;6.84;100.00
63405;BME280;49541;57.840;12.306;2024-01-30T13:28:26;101195.31;;;6.90;100.00
63405;BME280;49541;57.840;12.306;2024-01-30T13:33:26;101179.13;;;7.09;100.00
63405;BME280;49541;57.840;12.306;2024-01-30T13:38:27;101168.63;;;7.22;100.00
63405;BME280;49541;57.840;12.306;2024-01-30T13:43:27;101161.63;;;7.06;100.00
63405;BME280;49541;57.840;12.306;2024-01-30T13:48:27;101171.72;;;7.14;100.00
63405;BME280;49541;57.840;12.306;2024-01-30T13:53:27;101172.69;;;7.27;100.00
63405;BME280;49541;57.840;12.306;2024-01-30T13:58:28;101159.78;;;7.35;100.00
63405;BME280;49541;57.840;12.306;2024-01-30T14:03:28;101157.25;;;7.34;100.00
63405;BME280;49541;57.840;12.306;2024-01-30T14:08:29;101149.78;;;7.12;100.00
63405;BME280;49541;57.840;12.306;2024-01-30T14:13:32;101137.03;;;7.18;100.00
63405;BME280;49541;57.840;12.306;2024-01-30T14:18:33;101126.25;;;7.49;100.00
63405;BME280;49541;57.840;12.306;2024-01-30T14:23:33;101113.16;;;7.60;100.00
63405;BME280;49541;57.840;12.306;2024-01-30T14:28:34;101103.91;;;7.53;100.00
63405;BME280;49541;57.840;12.306;2024-01-30T14:33:34;101083.59;;;7.12;100.00
63405;BME280;49541;57.840;12.306;2024-01-30T14:38:35;101089.69;;;7.54;100.00
63405;BME280;49541;57.840;12.306;2024-01-30T14:43:35;101097.91;;;7.76;100.00
63405;BME280;49541;57.840;12.306;2024-01-30T14:48:37;101096.66;;;7.42;100.00
63405;BME280;49541;57.840;12.306;2024-01-30T14:53:38;101087.09;;;7.67;100.00
63405;BME280;49541;57.840;12.306;2024-01-30T14:58:38;101087.03;;;7.94;100.00
63405;BME280;49541;57.840;12.306;2024-01-30T15:03:38;101075.81;;;8.03;100.00
63405;BME280;49541;57.840;12.306;2024-01-30T15:08:39;101086.00;;;8.22;100.00
63405;BME280;49541;57.840;12.306;2024-01-30T15:13:40;101089.81;;;8.05;100.00
63405;BME280;49541;57.840;12.306;2024-01-30T15:18:40;101083.66;;;8.05;100.00
63405;BME280;49541;57.840;12.306;2024-01-30T15:23:40;101056.91;;;7.82;100.00
63405;BME280;49541;57.840;12.306;2024-01-30T15:28:40;101042.69;;;7.70;100.00
63405;BME280;49541;57.840;12.306;2024-01-30T15:33:41;101035.94;;;7.52;100.00
63405;BME280;49541;57.840;12.306;2024-01-30T15:38:42;101027.41;;;7.87;100.00
63405;BME280;49541;57.840;12.306;2024-01-30T15:43:42;101027.09;;;7.78;100.00
63405;BME280;49541;57.840;12.306;2024-01-30T15:48:42;101036.53;;;8.08;100.00
63405;BME280;49541;57.840;12.306;2024-01-30T15:53:43;101014.25;;;8.36;100.00
63405;BME280;49541;57.840;12.306;2024-01-30T15:58:44;101023.84;;;8.13;100.00
63405;BME280;49541;57.840;12.306;2024-01-30T16:03:49;101014.91;;;8.27;100.00
63405;BME280;49541;57.840;12.306;2024-01-30T16:08:49;101012.56;;;8.48;100.00
63405;BME280;49541;57.840;12.306;2024-01-30T16:13:50;100990.28;;;8.12;100.00
63405;BME280;49541;57.840;12.306;2024-01-30T16:18:52;100984.56;;;8.44;100.00
63405;BME280;49541;57.840;12.306;2024-01-30T16:23:53;100971.34;;;8.55;100.00
63405;BME280;49541;57.840;12.306;2024-01-30T16:28:53;100973.06;;;8.56;100.00
63405;BME280;49541;57.840;12.306;2024-01-30T16:33:54;100984.13;;;8.50;100.00
63405;BME280;49541;57.840;12.306;2024-01-30T16:38:54;101005.03;;;8.42;100.00
63405;BME280;49541;57.840;12.306;2024-01-30T16:43:54;101004.19;;;8.03;100.00
63405;BME280;49541;57.840;12.306;2024-01-30T16:48:55;100984.56;;;8.18;100.00
63405;BME280;49541;57.840;12.306;2024-01-30T16:53:55;100974.81;;;8.06;100.00
63405;BME280;49541;57.840;12.306;2024-01-30T16:58:55;100969.72;;;7.90;100.00
63405;BME280;49541;57.840;12.306;2024-01-30T17:03:55;100978.44;;;7.92;100.00
63405;BME280;49541;57.840;12.306;2024-01-30T17:08:56;100982.75;;;7.80;100.00
63405;BME280;49541;57.840;12.306;2024-01-30T17:13:56;100983.22;;;7.87;100.00
63405;BME280;49541;57.840;12.306;2024-01-30T17:18:56;100985.84;;;8.00;100.00
63405;BME280;49541;57.840;12.306;2024-01-30T17:23:57;100988.81;;;7.83;100.00
63405;BME280;49541;57.840;12.306;2024-01-30T17:28:57;100981.72;;;7.70;100.00
63405;BME280;49541;57.840;12.306;2024-01-30T17:33:57;100970.78;;;7.62;100.00
63405;BME280;49541;57.840;12.306;2024-01-30T17:38:57;100974.47;;;7.47;100.00
63405;BME280;49541;57.840;12.306;2024-01-30T17:44:00;100979.22;;;7.42;100.00
63405;BME280;49541;57.840;12.306;2024-01-30T17:49:00;100986.56;;;7.11;100.00
63405;BME280;49541;57.840;12.306;2024-01-30T17:54:00;100997.03;;;7.00;100.00
63405;BME280;49541;57.840;12.306;2024-01-30T17:59:00;101005.75;;;6.87;100.00
63405;BME280;49541;57.840;12.306;2024-01-30T18:04:01;100999.25;;;6.79;100.00
63405;BME280;49541;57.840;12.306;2024-01-30T18:09:02;100991.78;;;6.85;100.00
63405;BME280;49541;57.840;12.306;2024-01-30T18:14:03;100988.44;;;6.96;100.00
63405;BME280;49541;57.840;12.306;2024-01-30T18:19:04;100987.41;;;7.11;100.00
63405;BME280;49541;57.840;12.306;2024-01-30T18:24:04;100982.63;;;6.76;100.00
63405;BME280;49541;57.840;12.306;2024-01-30T18:29:05;100981.72;;;6.90;100.00
63405;BME280;49541;57.840;12.306;2024-01-30T18:34:06;100989.66;;;6.90;100.00
63405;BME280;49541;57.840;12.306;2024-01-30T18:39:06;100969.66;;;6.86;100.00
63405;BME280;49541;57.840;12.306;2024-01-30T18:44:06;100964.06;;;7.31;100.00
63405;BME280;49541;57.840;12.306;2024-01-30T18:49:07;100961.25;;;7.07;100.00
63405;BME280;49541;57.840;12.306;2024-01-30T18:54:07;100972.50;;;7.10;100.00
63405;BME280;49541;57.840;12.306;2024-01-30T18:59:07;100983.91;;;6.56;100.00
63405;BME280;49541;57.840;12.306;2024-01-30T19:04:08;100972.03;;;6.35;100.00
63405;BME280;49541;57.840;12.306;2024-01-30T19:09:10;100969.84;;;6.42;100.00
63405;BME280;49541;57.840;12.306;2024-01-30T19:14:10;100978.91;;;6.52;100.00
63405;BME280;49541;57.840;12.306;2024-01-30T19:19:11;100992.16;;;6.38;100.00
63405;BME280;49541;57.840;12.306;2024-01-30T19:24:11;100988.09;;;6.03;100.00
63405;BME280;49541;57.840;12.306;2024-01-30T19:29:11;100988.66;;;6.23;100.00
63405;BME280;49541;57.840;12.306;2024-01-30T19:34:11;100981.50;;;6.25;100.00
63405;BME280;49541;57.840;12.306;2024-01-30T19:39:12;100983.09;;;6.27;100.00
63405;BME280;49541;57.840;12.306;2024-01-30T19:44:13;100968.66;;;6.33;100.00
63405;BME280;49541;57.840;12.306;2024-01-30T19:49:13;100974.88;;;6.32;100.00
63405;BME280;49541;57.840;12.306;2024-01-30T19:54:13;100961.84;;;6.29;100.00
63405;BME280;49541;57.840;12.306;2024-01-30T19:59:14;100971.13;;;6.22;100.00
63405;BME280;49541;57.840;12.306;2024-01-30T20:04:14;100972.44;;;6.29;100.00
63405;BME280;49541;57.840;12.306;2024-01-30T20:09:16;100967.91;;;6.58;100.00
63405;BME280;49541;57.840;12.306;2024-01-30T20:14:16;100963.75;;;6.68;100.00
63405;BME280;49541;57.840;12.306;2024-01-30T20:19:16;100965.56;;;6.53;100.00
63405;BME280;49541;57.840;12.306;2024-01-30T20:24:16;100963.16;;;6.78;100.00
63405;BME280;49541;57.840;12.306;2024-01-30T20:29:17;100967.00;;;6.86;100.00
63405;BME280;49541;57.840;12.306;2024-01-30T20:34:18;100969.66;;;6.86;100.00
63405;BME280;49541;57.840;12.306;2024-01-30T20:39:18;100963.16;;;7.05;100.00
63405;BME280;49541;57.840;12.306;2024-01-30T20:44:19;100958.59;;;7.07;100.00
63405;BME280;49541;57.840;12.306;2024-01-30T20:49:19;100955.75;;;7.23;100.00
63405;BME280;49541;57.840;12.306;2024-01-30T20:54:21;100940.78;;;7.49;100.00
63405;BME280;49541;57.840;12.306;2024-01-30T20:59:22;100942.53;;;7.23;100.00
63405;BME280;49541;57.840;12.306;2024-01-30T21:04:22;100935.56;;;6.94;100.00
63405;BME280;49541;57.840;12.306;2024-01-30T21:09:22;100942.81;;;7.05;100.00
63405;BME280;49541;57.840;12.306;2024-01-30T21:14:22;100949.03;;;7.44;100.00
63405;BME280;49541;57.840;12.306;2024-01-30T21:19:23;100946.16;;;7.34;100.00
63405;BME280;49541;57.840;12.306;2024-01-30T21:24:23;100932.91;;;7.34;100.00
63405;BME280;49541;57.840;12.306;2024-01-30T21:29:24;100927.00;;;7.56;100.00
63405;BME280;49541;57.840;12.306;2024-01-30T21:34:24;100920.94;;;7.54;100.00
63405;BME280;49541;57.840;12.306;2024-01-30T21:39:24;100923.50;;;7.56;100.00
63405;BME280;49541;57.840;12.306;2024-01-30T21:44:24;100922.66;;;7.68;100.00
63405;BME280;49541;57.840;12.306;2024-01-30T21:49:25;100918.41;;;7.78;100.00
63405;BME280;49541;57.840;12.306;2024-01-30T21:54:25;100914.69;;;7.94;100.00
63405;BME280;49541;57.840;12.306;2024-01-30T21:59:26;100906.34;;;7.87;100.00
63405;BME280;49541;57.840;12.306;2024-01-30T22:04:26;100899.44;;;8.21;100.00
63405;BME280;49541;57.840;12.306;2024-01-30T22:09:27;100898.06;;;7.66;100.00
63405;BME280;49541;57.840;12.306;2024-01-30T22:14:27;100901.97;;;7.73;100.00
63405;BME280;49541;57.840;12.306;2024-01-30T22:19:27;100891.41;;;8.10;100.00
63405;BME280;49541;57.840;12.306;2024-01-30T22:24:27;100887.22;;;7.95;100.00
63405;BME280;49541;57.840;12.306;2024-01-30T22:29:28;100888.66;;;8.12;100.00
63405;BME280;49541;57.840;12.306;2024-01-30T22:34:28;100877.38;;;7.71;100.00
63405;BME280;49541;57.840;12.306;2024-01-30T22:39:28;100880.78;;;7.73;100.00
63405;BME280;49541;57.840;12.306;2024-01-30T22:44:28;100874.72;;;7.84;100.00
63405;BME280;49541;57.840;12.306;2024-01-30T22:49:28;100881.78;;;8.09;100.00
63405;BME280;49541;57.840;12.306;2024-01-30T22:54:29;100885.47;;;8.19;100.00
63405;BME280;49541;57.840;12.306;2024-01-30T22:59:29;100879.78;;;8.74;100.00
63405;BME280;49541;57.840;12.306;2024-01-30T23:04:29;100893.19;;;8.59;100.00
63405;BME280;49541;57.840;12.306;2024-01-30T23:09:29;100888.28;;;7.92;100.00
63405;BME280;49541;57.840;12.306;2024-01-30T23:14:30;100891.81;;;8.17;100.00
63405;BME280;49541;57.840;12.306;2024-01-30T23:19:30;100875.81;;;8.55;100.00
63405;BME280;49541;57.840;12.306;2024-01-30T23:24:31;100879.94;;;8.23;100.00
63405;BME280;49541;57.840;12.306;2024-01-30T23:29:31;100872.25;;;8.44;100.00
63405;BME280;49541;57.840;12.306;2024-01-30T23:34:31;100880.25;;;8.31;100.00
63405;BME280;49541;57.840;12.306;2024-01-30T23:39:32;100872.47;;;8.65;100.00
63405;BME280;49541;57.840;12.306;2024-01-30T23:44:32;100874.19;;;8.42;100.00
63405;BME280;49541;57.840;12.306;2024-01-30T23:49:33;100873.84;;;8.46;100.00
63405;BME280;49541;57.840;12.306;2024-01-30T23:54:33;100875.56;;;7.85;100.00
63405;BME280;49541;57.840;12.306;2024-01-30T23:59:33;100881.09;;;7.56;100.00
